»·PEaware :: N208L KFOT-KRDD

N208L :: KFOT-KRDD

FLIGHT INFORMATION

Flight Status: Arrived
Operator: Privately registered:
United States
More flights under this callsign
Pilot: Mark M. (12592)
Aircraft: PIPER PA-28R-201 ARROW
(P28R)
More flights by this aircraft type
Origin: KFOT Rohnerville
United States
Destination: KRDD Redding Mun
United States
More flights between these airports :: More routes between these airports
Route: FOT V195 RBL
File this flight plan on PilotEdge
Remarks: No STARs
Altitude:
(Current/Filed)
11,000ft
Speed:
(Current/Filed)
130kts
Departed: 02-Apr-17 10:32 AM
Arrived: 02-Apr-17 11:37 AM
Distance/Time
Traveled:
84nm/1:05
Distance/Time
To Go:
Arrived

Flight Plot

Page will automatically refresh every two minutes.

Flight plan parsing failed; only flown route is shown


Map Options




Map Legend


Flown Route
Filed Route
Departure Airport
Arrival Airport
Navaid (VOR, NDB)
Fix

Horizontal Profiles

Position Reports

Time Latitude Longitude Heading Altitude Ground
Speed
02-Apr-17 10:23 40.554781 -124.131827 120 357ft 0kts
02-Apr-17 10:24 40.554780 -124.131827 120 357ft 0kts
02-Apr-17 10:25 40.554778 -124.131821 120 357ft 0kts
02-Apr-17 10:26 40.554775 -124.131816 120 357ft 0kts
02-Apr-17 10:27 40.554773 -124.131810 120 357ft 0kts
02-Apr-17 10:28 40.553078 -124.129969 124 357ft 20kts
02-Apr-17 10:29 40.551113 -124.126725 160 357ft 0kts
02-Apr-17 10:30 40.551103 -124.126721 160 357ft 0kts
02-Apr-17 10:31 40.551097 -124.126718 160 357ft 0kts
02-Apr-17 10:32 40.551035 -124.126699 174 357ft 3kts
02-Apr-17 10:33 40.557162 -124.138330 306 783ft 83kts
02-Apr-17 10:34 40.571729 -124.161746 324 2052ft 82kts
02-Apr-17 10:35 40.592632 -124.174737 341 3112ft 85kts
02-Apr-17 10:36 40.612509 -124.193403 339 4036ft 89kts
02-Apr-17 10:37 40.633751 -124.209260 346 4901ft 91kts
02-Apr-17 10:38 40.652632 -124.191767 75 5619ft 105kts
02-Apr-17 10:39 40.644880 -124.155243 91 6569ft 101kts
02-Apr-17 10:40 40.637766 -124.119469 87 7385ft 97kts
02-Apr-17 10:41 40.632184 -124.083324 108 8063ft 109kts
02-Apr-17 10:42 40.617468 -124.050507 100 8866ft 101kts
02-Apr-17 10:43 40.608026 -124.016237 94 9599ft 98kts
02-Apr-17 10:44 40.599837 -123.979278 99 10180ft 109kts
02-Apr-17 10:45 40.589867 -123.941105 100 10688ft 113kts
02-Apr-17 10:46 40.579266 -123.900943 101 11025ft 125kts
02-Apr-17 10:47 40.566938 -123.855876 103 10989ft 132kts
02-Apr-17 10:48 40.553915 -123.810646 103 10988ft 132kts
02-Apr-17 10:49 40.541038 -123.765318 103 10983ft 132kts
02-Apr-17 10:50 40.528523 -123.720026 102 10979ft 132kts
02-Apr-17 10:51 40.516111 -123.674700 103 10994ft 132kts
02-Apr-17 10:52 40.503555 -123.628967 103 11015ft 133kts
02-Apr-17 10:53 40.490748 -123.583007 103 10969ft 133kts
02-Apr-17 10:54 40.478060 -123.538009 103 11029ft 131kts
02-Apr-17 10:55 40.465530 -123.493107 103 11101ft 131kts
02-Apr-17 10:56 40.453109 -123.448196 103 11182ft 131kts
02-Apr-17 10:57 40.440644 -123.403034 103 11251ft 131kts
02-Apr-17 10:58 40.427958 -123.357335 104 11246ft 135kts
02-Apr-17 10:59 40.413858 -123.311272 106 11149ft 136kts
02-Apr-17 11:00 40.399564 -123.265465 105 11092ft 135kts
02-Apr-17 11:01 40.385909 -123.219756 104 11090ft 133kts
02-Apr-17 11:02 40.372924 -123.174028 103 11085ft 133kts
02-Apr-17 11:03 40.360203 -123.128227 103 11082ft 133kts
02-Apr-17 11:04 40.347301 -123.082490 104 11073ft 134kts
02-Apr-17 11:05 40.333977 -123.036720 104 11071ft 134kts
02-Apr-17 11:06 40.320407 -122.991116 105 11069ft 134kts
02-Apr-17 11:07 40.306788 -122.945584 105 11080ft 134kts
02-Apr-17 11:08 40.293320 -122.899964 104 11075ft 135kts
02-Apr-17 11:09 40.279971 -122.853962 104 11023ft 135kts
02-Apr-17 11:10 40.266645 -122.808035 104 11027ft 133kts
02-Apr-17 11:11 40.253373 -122.762529 104 11059ft 134kts
02-Apr-17 11:12 40.239647 -122.715367 104 10738ft 145kts
02-Apr-17 11:13 40.224927 -122.665484 104 10047ft 146kts
02-Apr-17 11:14 40.210139 -122.616322 104 9387ft 143kts
02-Apr-17 11:15 40.196063 -122.568094 103 8787ft 141kts
02-Apr-17 11:16 40.182168 -122.519396 103 8116ft 144kts
02-Apr-17 11:17 40.167930 -122.470754 104 7470ft 142kts
02-Apr-17 11:18 40.153549 -122.422452 104 6896ft 143kts
02-Apr-17 11:19 40.139430 -122.374074 104 6324ft 141kts
02-Apr-17 11:20 40.126133 -122.327143 101 5778ft 134kts
02-Apr-17 11:21 40.110764 -122.281830 110 5268ft 139kts
02-Apr-17 11:22 40.105189 -122.235949 40 4744ft 126kts
02-Apr-17 11:23 40.132079 -122.251741 329 4370ft 119kts
02-Apr-17 11:24 40.162140 -122.268610 343 3973ft 117kts
02-Apr-17 11:25 40.191584 -122.280759 339 3464ft 110kts
02-Apr-17 11:26 40.220253 -122.294261 342 2979ft 104kts
02-Apr-17 11:27 40.247892 -122.296434 358 2646ft 103kts
02-Apr-17 11:28 40.275153 -122.295053 357 2603ft 97kts
02-Apr-17 11:29 40.301925 -122.295137 1 2727ft 96kts
02-Apr-17 11:30 40.329234 -122.294875 355 2696ft 100kts
02-Apr-17 11:31 40.357381 -122.295266 358 2678ft 100kts
02-Apr-17 11:32 40.383980 -122.294567 356 2642ft 83kts
02-Apr-17 11:33 40.407548 -122.295083 358 2366ft 87kts
02-Apr-17 11:34 40.431546 -122.295154 359 1890ft 86kts
02-Apr-17 11:35 40.455580 -122.295075 358 1415ft 83kts
02-Apr-17 11:36 40.477441 -122.295100 359 986ft 78kts
02-Apr-17 11:37 40.499187 -122.294890 359 570ft 72kts
02-Apr-17 11:38 40.508385 -122.296061 299 505ft 6kts
02-Apr-17 11:39 40.507680 -122.298446 293 505ft 10kts
02-Apr-17 11:40 40.510021 -122.298642 1 505ft 5kts
02-Apr-17 11:41 40.509900 -122.298338 176 505ft 0kts
02-Apr-17 11:42 40.509900 -122.298338 176 505ft 0kts
02-Apr-17 11:43 40.509900 -122.298338 176 505ft 0kts
02-Apr-17 11:44 40.509900 -122.298338 176 505ft 0kts
02-Apr-17 11:45 40.509900 -122.298338 176 505ft 0kts
02-Apr-17 11:46 40.509900 -122.298338 176 505ft 0kts
02-Apr-17 11:47 40.509900 -122.298338 176 505ft 0kts
02-Apr-17 11:48 40.509900 -122.298338 176 505ft 0kts
02-Apr-17 11:49 40.509900 -122.298338 176 505ft 0kts
02-Apr-17 11:50 40.509900 -122.298338 176 505ft 0kts

Navigation Log

Ident Type
Flight plan parsing failed, navigation log unavailable